Avery, TX

7:21 PM CDT on September 20, 2014 (GMT -0500)
De Kalb, Texas | Change Station
CLOSE
Current Station
Personal Weather Station
Location: De Kalb, TX
Elevation: 411 ft
Nearby Weather Stations

Elev 411 ft 33.51 °N, 94.62 °W | Updated 8 seconds ago

Clear
Clear
79.8 °F
Feels Like 84 °F
N
0.0
Wind Variable Wind from NNE
Gusts 0.0 mph

Today
High -- | Low -- °F
--% Chance of Precip.
Yesterday
High -- | Low -- °F
Precip. -- in
7:05 AM 7:18 PM
Waning Crescent, 9% visible
Pressure 29.96 in
Visibility 10.0 miles
Clouds Clear
Heat Index 84 °F
Dew Point 73 °F
Humidity 79%
Rainfall 0.00 in
Snow Depth Not available.
UV 0 out of 12
Pollen 10.80 out of 12
Air Quality Not available.
Flu Activity Not available.
METAR KOSA 210015Z AUTO 00000KT 10SM CLR 28/19 A2996 RMK AO1 T02810191

More Conditions Fewer Conditions

Pressure 29.96 in
Visibility 10.0 miles
Clouds Clear
Heat Index 84 °F
Dew Point 73 °F
Humidity 79%
Rainfall 0.00 in
Snow Depth Not available.
UV 0 out of 12
Pollen 10.80 out of 12
Air Quality Not available.
Flu Activity Not available.
METAR KOSA 210015Z AUTO 00000KT 10SM CLR 28/19 A2996 RMK AO1 T02810191

More Conditions Fewer Conditions

10-Day Weather Forecast

Almanac

Astronomy

Sep. 20, 2014 Rise Set
Actual Time 7:05 AM CDT 7:18 PM CDT
Civil Twilight 6:41 AM CDT 7:43 PM CDT
Nautical Twilight 6:12 AM CDT 8:12 PM CDT
Astronomical Twilight 5:42 AM CDT 8:41 PM CDT
Moon 3:53 AM CDT (9/20) 5:15 PM CDT (9/20)
Length of Visible Light 13h 02m
Length of Day
12h 12m
Tomorrow will be 2m 4s shorter.
Waning Crescent, 9% of the Moon is Illuminated
Today
Waning Crescent
Sep 24
New
Oct 1
First Quarter
Oct 8
Full
Oct 15
Last Quarter

Today's Extremes

State Highs State Lows

Community

WunderPhotos

Upload Photos

1,755,000 photos uploaded!

WunderBlogs® & News

Nearby

Snow Depth

Station Depth Elevation
No new snow has been reported.

Earthquake Activity

City Distance Mag. Time & Date
No recent earthquake activity has been reported nearby.
Minimum magnitude displayed is 2.5.

Coastal Water Temperatures

Place Temperature
No Stations Reporting

Nearby Weather Stations